createdAt,value
2018-12-24T00:04:59.529Z,89.71
2018-12-24T00:10:19.129Z,90.33
2018-12-24T00:15:37.980Z,90.29
2018-12-24T00:20:57.201Z,90.25
2018-12-24T00:26:16.711Z,90.63
2018-12-24T00:31:36.139Z,90.71
2018-12-24T00:36:54.471Z,90.60
2018-12-24T00:42:15.915Z,90.42
2018-12-24T00:47:31.805Z,90.59
2018-12-24T00:52:50.891Z,90.62
2018-12-24T00:58:10.236Z,90.40
2018-12-24T01:03:32.499Z,90.15
2018-12-24T01:08:51.212Z,89.61
2018-12-24T01:14:10.650Z,89.05
2018-12-24T01:19:31.489Z,88.66
2018-12-24T01:24:50.278Z,88.41
2018-12-24T01:30:09.325Z,85.88
2018-12-24T01:35:27.875Z,85.88
2018-12-24T01:40:46.550Z,85.20
2018-12-24T01:46:05.422Z,84.89
2018-12-24T01:51:24.461Z,83.64
2018-12-24T01:56:43.037Z,81.65
2018-12-24T02:02:02.475Z,81.93
2018-12-24T02:07:21.379Z,80.50
2018-12-24T02:12:42.308Z,80.03
2018-12-24T02:17:58.582Z,78.97
2018-12-24T02:23:17.355Z,77.32
2018-12-24T02:28:37.396Z,77.45
2018-12-24T02:33:55.260Z,77.66
2018-12-24T02:39:13.890Z,76.37
2018-12-24T02:44:32.776Z,75.92
2018-12-24T02:49:51.626Z,75.27
2018-12-24T02:55:10.021Z,73.98
2018-12-24T03:00:28.205Z,77.58
2018-12-24T03:05:47.298Z,75.73
2018-12-24T03:11:05.707Z,77.04
2018-12-24T03:16:24.352Z,77.09
2018-12-24T03:21:43.345Z,77.34
2018-12-24T03:27:02.468Z,77.62
2018-12-24T03:32:20.823Z,79.37
2018-12-24T03:37:39.742Z,81.70
2018-12-24T04:43:51.957Z,94.98
2018-12-24T04:49:10.431Z,95.06
2018-12-24T04:54:29.548Z,95.11
2018-12-24T04:59:47.741Z,95.13
2018-12-24T05:05:06.755Z,95.19
2018-12-24T05:10:25.498Z,95.17
2018-12-24T05:15:44.740Z,95.13
2018-12-24T05:21:03.786Z,95.12
